Terminal Aerodrome Forecast
Issued by NWS

Home | Current Version | Previous Version | Graphics & Text | Print | Product List | Glossary On
Versions: 1 2 3 4 5 6 7 8 9 10 11 12 13 14 15 16
000
FTUS43 KGRB 192330
TAFRHI
TAF
KRHI 192330Z 2000/2024 29006KT P6SM SCT035 BKN050
      TEMPO 2000/2003 -SHRA BKN035
     FM200300 28003KT P6SM BKN060
     FM201400 29007KT P6SM BKN045 PROB30 2014/2018 -SHRA BKN035
     FM202000 31007KT P6SM SCT060=

USA.gov is the U.S. government's official web portal to all federal, state and local government web resources and services.